createdAt,value
2019-05-20T00:01:53.227Z,94252.90
2019-05-20T00:04:19.914Z,94264.59
2019-05-20T00:06:46.584Z,94263.08
2019-05-20T00:09:13.374Z,94260.95
2019-05-20T00:11:40.052Z,94255.30
2019-05-20T00:14:06.728Z,94258.26
2019-05-20T00:16:33.411Z,94269.02
2019-05-20T00:19:00.108Z,94270.01
2019-05-20T00:21:26.777Z,94271.03
2019-05-20T00:23:53.441Z,94272.25
2019-05-20T00:26:20.130Z,94281.78
2019-05-20T00:28:46.882Z,94265.19
2019-05-20T00:31:13.622Z,94279.30
2019-05-20T00:33:40.289Z,94279.27
2019-05-20T00:36:06.982Z,94279.19
2019-05-20T00:38:33.663Z,94279.99
2019-05-20T00:41:00.339Z,94290.69
2019-05-20T00:43:27.030Z,94288.45
2019-05-20T00:45:53.755Z,94286.77
2019-05-20T00:48:20.487Z,94285.85
2019-05-20T00:50:47.116Z,94296.68
2019-05-20T00:53:13.783Z,94282.09
2019-05-20T00:55:40.453Z,94292.14
2019-05-20T00:58:07.101Z,94289.36
2019-05-20T01:00:33.757Z,94305.38
2019-05-20T01:03:00.414Z,94302.49
2019-05-20T01:05:27.062Z,94286.98
2019-05-20T01:10:20.357Z,94301.72
2019-05-20T01:12:46.997Z,94300.78
2019-05-20T01:15:13.639Z,94304.84
2019-05-20T01:17:40.272Z,94294.47
2019-05-20T01:20:06.924Z,94293.09
2019-05-20T01:22:33.575Z,94301.31
2019-05-20T01:25:00.237Z,94310.38
2019-05-20T01:27:26.898Z,94303.91
2019-05-20T01:29:53.550Z,94304.45
2019-05-20T01:32:20.206Z,94303.05
2019-05-20T01:34:46.844Z,94307.31
2019-05-20T01:37:13.502Z,94295.92
2019-05-20T01:39:40.140Z,94307.20
2019-05-20T01:44:33.516Z,94298.86
2019-05-20T01:47:00.149Z,94304.34
2019-05-20T01:49:26.786Z,94291.88
2019-05-20T01:51:53.440Z,94302.63
2019-05-20T01:54:20.085Z,94308.22
2019-05-20T01:56:46.731Z,94307.25
2019-05-20T01:59:13.368Z,94300.41
2019-05-20T02:01:40.022Z,94296.13
2019-05-20T02:04:06.661Z,94308.59
2019-05-20T02:06:33.310Z,94301.23
2019-05-20T02:08:59.956Z,94295.95
2019-05-20T02:11:26.604Z,94295.44
2019-05-20T02:13:53.246Z,94292.98
2019-05-20T02:18:46.590Z,94291.00
2019-05-20T02:21:13.239Z,94283.67
2019-05-20T02:23:39.957Z,94286.05
2019-05-20T02:26:06.627Z,94294.58
2019-05-20T02:28:33.258Z,94288.70
2019-05-20T02:30:59.927Z,94288.00
2019-05-20T02:33:26.571Z,94298.64
2019-05-20T02:35:53.238Z,94291.95
2019-05-20T02:38:19.875Z,94288.02
2019-05-20T02:40:46.517Z,94293.88
2019-05-20T02:43:13.178Z,94293.91
2019-05-20T02:45:39.827Z,94292.63
2019-05-20T02:48:06.464Z,94289.04
2019-05-20T02:50:33.113Z,94279.45
2019-05-20T02:52:59.751Z,94294.25
2019-05-20T02:55:26.390Z,94297.03
2019-05-20T02:57:53.049Z,94298.98
2019-05-20T03:00:19.702Z,94305.08
2019-05-20T03:02:46.348Z,94302.94
2019-05-20T03:05:13.007Z,94304.47
2019-05-20T03:07:39.655Z,94304.06
2019-05-20T03:10:06.296Z,94310.31
2019-05-20T03:12:32.965Z,94311.54
2019-05-20T03:14:59.604Z,94314.59
2019-05-20T03:17:26.258Z,94314.87
2019-05-20T03:19:53.005Z,94317.08
2019-05-20T03:22:19.645Z,94314.84
2019-05-20T03:24:46.304Z,94311.11
2019-05-20T03:27:12.950Z,94311.03
2019-05-20T03:29:39.642Z,94305.44
2019-05-20T03:32:06.259Z,94308.81
2019-05-20T03:34:46.421Z,94308.88
2019-05-20T03:39:26.197Z,94319.61
2019-05-20T03:41:52.833Z,94321.75
2019-05-20T03:44:19.535Z,94337.90
2019-05-20T03:46:46.186Z,94335.66
2019-05-20T03:49:12.829Z,94338.44
2019-05-20T03:51:39.473Z,94341.96
2019-05-20T03:54:06.105Z,94341.45
2019-05-20T03:56:32.841Z,94343.84
2019-05-20T03:58:59.480Z,94361.48
2019-05-20T04:01:26.117Z,94360.97
2019-05-20T04:03:52.773Z,94361.53
2019-05-20T04:06:19.425Z,94360.90
2019-05-20T04:08:46.064Z,94357.96
2019-05-20T04:11:12.756Z,94361.72
2019-05-20T04:13:39.395Z,94366.33
2019-05-20T04:16:06.046Z,94367.05
2019-05-20T04:18:32.689Z,94364.34
2019-05-20T04:20:59.334Z,94366.56
2019-05-20T04:23:25.983Z,94365.86
2019-05-20T04:25:52.624Z,94368.98
2019-05-20T04:28:19.295Z,94370.58
2019-05-20T04:30:45.947Z,94366.92
2019-05-20T04:33:14.693Z,94369.33
2019-05-20T04:35:39.266Z,94372.70
2019-05-20T04:38:05.913Z,94369.23
2019-05-20T04:40:32.571Z,94359.98
2019-05-20T04:43:00.564Z,94361.59
2019-05-20T04:45:27.218Z,94360.17
2019-05-20T04:47:53.860Z,94370.55
2019-05-20T04:50:20.506Z,94363.66
2019-05-20T04:52:47.168Z,94366.88
2019-05-20T04:55:13.799Z,94356.56
2019-05-20T04:57:40.447Z,94359.00
2019-05-20T05:00:07.126Z,94360.05
2019-05-20T05:02:33.855Z,94361.09
2019-05-20T05:05:00.426Z,94357.91
2019-05-20T05:07:27.078Z,94354.13
2019-05-20T05:09:53.718Z,94367.22
2019-05-20T05:12:20.370Z,94362.85
2019-05-20T05:14:47.051Z,94364.16
2019-05-20T05:17:13.691Z,94359.98
2019-05-20T05:19:40.341Z,94358.48
2019-05-20T05:22:07.012Z,94357.98
2019-05-20T05:24:33.674Z,94354.20
2019-05-20T05:27:00.327Z,94353.31
2019-05-20T05:29:26.978Z,94354.33
2019-05-20T05:31:53.625Z,94355.53
2019-05-20T05:34:20.358Z,94358.80
2019-05-20T05:36:47.020Z,94364.79
2019-05-20T05:39:13.701Z,94368.08
2019-05-20T05:41:40.337Z,94367.81
2019-05-20T05:44:06.993Z,94375.70
2019-05-20T05:46:33.699Z,94377.69
2019-05-20T05:49:00.416Z,94372.95
2019-05-20T05:51:27.071Z,94378.03
2019-05-20T05:53:53.732Z,94371.66
2019-05-20T05:56:20.375Z,94373.64
2019-05-20T05:58:47.040Z,94374.02
2019-05-20T06:01:13.687Z,94379.70
2019-05-20T06:03:40.386Z,94380.52
2019-05-20T06:06:12.012Z,94386.38
2019-05-20T06:08:33.678Z,94386.94
2019-05-20T06:11:00.334Z,94379.52
2019-05-20T06:13:26.986Z,94381.16
2019-05-20T06:15:54.689Z,94381.44
2019-05-20T06:18:20.315Z,94382.89
2019-05-20T06:20:46.945Z,94384.22
2019-05-20T06:23:13.592Z,94388.44
2019-05-20T06:25:40.279Z,94389.36
2019-05-20T06:28:06.924Z,94381.56
2019-05-20T06:30:33.597Z,94377.04
2019-05-20T06:33:00.242Z,94375.54
2019-05-20T06:35:26.922Z,94382.31
2019-05-20T06:37:53.580Z,94375.25
2019-05-20T06:40:20.255Z,94373.05
2019-05-20T06:42:46.900Z,94378.16
2019-05-20T06:45:13.551Z,94378.23
2019-05-20T06:47:42.294Z,94376.94
2019-05-20T06:50:06.886Z,94379.56
2019-05-20T06:52:36.093Z,94370.84
2019-05-20T06:55:00.278Z,94371.28
2019-05-20T06:57:26.945Z,94378.63
2019-05-20T06:59:53.642Z,94386.06
2019-05-20T07:02:20.285Z,94378.83
2019-05-20T07:04:46.939Z,94385.55
2019-05-20T07:07:20.913Z,94378.55
2019-05-20T07:09:40.293Z,94385.63
2019-05-20T07:12:06.930Z,94384.63
2019-05-20T07:14:33.617Z,94384.80
2019-05-20T07:17:00.271Z,94386.30
2019-05-20T07:19:26.931Z,94386.86
2019-05-20T07:21:53.591Z,94385.00
2019-05-20T07:24:20.442Z,94380.27
2019-05-20T07:26:47.289Z,94374.05
2019-05-20T07:29:14.103Z,94381.88
2019-05-20T07:31:40.582Z,94384.77
2019-05-20T07:34:07.244Z,94375.00
2019-05-20T07:36:33.943Z,94377.03
2019-05-20T07:39:00.594Z,94375.91
2019-05-20T07:41:27.270Z,94377.37
2019-05-20T07:43:53.910Z,94377.83
2019-05-20T07:46:20.614Z,94379.78
2019-05-20T07:48:47.293Z,94379.28
2019-05-20T07:51:13.915Z,94380.15
2019-05-20T07:53:40.593Z,94377.79
2019-05-20T07:56:07.296Z,94384.80
2019-05-20T07:58:34.071Z,94384.02
2019-05-20T08:01:00.704Z,94389.54
2019-05-20T08:03:27.356Z,94373.80
2019-05-20T08:05:54.109Z,94384.21
2019-05-20T08:08:21.105Z,94382.33
2019-05-20T08:10:47.898Z,94380.11
2019-05-20T08:13:14.744Z,94379.62
2019-05-20T08:15:41.414Z,94372.64
2019-05-20T08:18:08.212Z,94367.97
2019-05-20T08:20:34.952Z,94382.33
2019-05-20T08:23:02.111Z,94381.02
2019-05-20T08:25:28.629Z,94382.96
2019-05-20T08:27:55.404Z,94397.19
2019-05-20T08:30:22.218Z,94392.37
2019-05-20T08:32:48.935Z,94387.34
2019-05-20T08:35:15.734Z,94386.56
2019-05-20T08:37:45.653Z,94383.33
2019-05-20T08:40:09.278Z,94370.05
2019-05-20T08:42:36.150Z,94385.65
2019-05-20T08:45:03.658Z,94389.07
2019-05-20T08:47:29.883Z,94374.86
2019-05-20T08:49:56.628Z,94385.47
2019-05-20T08:52:23.384Z,94392.98
2019-05-20T08:54:50.110Z,94381.64
2019-05-20T08:57:16.962Z,94382.84
2019-05-20T08:59:43.930Z,94386.58
2019-05-20T09:02:10.570Z,94386.20
2019-05-20T09:04:37.220Z,94381.14
2019-05-20T09:07:04.151Z,94387.22
2019-05-20T09:09:31.049Z,94386.14
2019-05-20T09:11:57.631Z,94389.13
2019-05-20T09:14:24.354Z,94388.54
2019-05-20T09:16:51.092Z,94395.30
2019-05-20T09:19:17.799Z,94393.95
2019-05-20T09:21:44.690Z,94395.77
2019-05-20T09:24:11.406Z,94396.43
2019-05-20T09:26:38.253Z,94397.08
2019-05-20T09:29:05.114Z,94391.78
2019-05-20T09:31:31.898Z,94387.85
2019-05-20T09:33:58.708Z,94377.98
2019-05-20T09:36:26.037Z,94376.67
2019-05-20T09:38:52.088Z,94372.55
2019-05-20T09:41:18.895Z,94377.76
2019-05-20T09:43:45.790Z,94374.62
2019-05-20T09:46:12.595Z,94371.83
2019-05-20T09:48:39.468Z,94359.58
2019-05-20T09:51:07.421Z,94356.23
2019-05-20T09:53:33.109Z,94361.27
2019-05-20T09:56:00.076Z,94360.95
2019-05-20T09:58:26.737Z,94349.65
2019-05-20T10:00:53.444Z,94355.56
2019-05-20T10:03:20.188Z,94351.63
2019-05-20T10:05:46.844Z,94343.15
2019-05-20T10:08:36.924Z,94337.47
2019-05-20T10:10:49.559Z,94335.81
2019-05-20T10:13:16.369Z,94334.67
2019-05-20T10:15:43.211Z,94340.84
2019-05-20T10:18:09.934Z,94334.50
2019-05-20T10:20:36.680Z,94340.17
2019-05-20T10:23:03.546Z,94337.80
2019-05-20T10:25:30.387Z,94336.66
2019-05-20T10:27:57.844Z,94337.90
2019-05-20T10:30:24.146Z,94335.11
2019-05-20T10:32:51.010Z,94334.62
2019-05-20T10:35:17.748Z,94337.43
2019-05-20T10:37:44.516Z,94339.91
2019-05-20T10:40:11.435Z,94344.58
2019-05-20T10:42:38.177Z,94346.86
2019-05-20T10:45:04.826Z,94341.86
2019-05-20T10:47:31.767Z,94346.61
2019-05-20T10:49:58.600Z,94338.73
2019-05-20T10:52:25.247Z,94341.50
2019-05-20T10:54:52.108Z,94334.72
2019-05-20T10:57:18.917Z,94337.33
2019-05-20T10:59:45.717Z,94327.73
2019-05-20T11:02:12.505Z,94338.36
2019-05-20T11:04:39.436Z,94339.80
2019-05-20T11:07:06.305Z,94346.87
2019-05-20T11:09:33.237Z,94351.46
2019-05-20T11:12:00.063Z,94348.88
2019-05-20T11:14:26.861Z,94348.91
2019-05-20T11:16:53.536Z,94344.53
2019-05-20T11:19:20.407Z,94344.02
2019-05-20T11:21:47.247Z,94355.94
2019-05-20T11:24:14.016Z,94358.92
2019-05-20T11:26:40.909Z,94361.46
2019-05-20T11:29:07.572Z,94326.98
2019-05-20T11:31:34.214Z,94354.13
2019-05-20T11:34:00.871Z,94362.03
2019-05-20T11:36:27.539Z,94369.09
2019-05-20T11:38:54.199Z,94361.08
2019-05-20T11:41:51.154Z,94353.14
2019-05-20T11:43:47.570Z,94352.11
2019-05-20T11:46:14.207Z,94346.53
2019-05-20T11:48:40.891Z,94348.57
2019-05-20T11:51:07.537Z,94353.33
2019-05-20T11:53:34.174Z,94361.61
2019-05-20T11:56:00.830Z,94352.50
2019-05-20T11:58:27.471Z,94356.67
2019-05-20T12:00:54.115Z,94360.59
2019-05-20T12:03:20.803Z,94355.50
2019-05-20T12:05:47.657Z,94352.97
2019-05-20T12:08:14.426Z,94354.91
2019-05-20T12:10:41.190Z,94357.43
2019-05-20T12:13:08.080Z,94357.71
2019-05-20T12:15:34.901Z,94352.23
2019-05-20T12:18:01.754Z,94353.05
2019-05-20T12:20:28.591Z,94363.20
2019-05-20T12:22:55.432Z,94361.89
2019-05-20T12:25:22.289Z,94362.27
2019-05-20T12:27:49.116Z,94363.75
2019-05-20T12:30:16.296Z,94371.95
2019-05-20T12:32:42.803Z,94376.06
2019-05-20T12:35:09.551Z,94381.55
2019-05-20T12:37:36.398Z,94388.16
2019-05-20T12:40:07.842Z,94398.03
2019-05-20T12:42:32.839Z,94403.81
2019-05-20T12:44:59.618Z,94416.72
2019-05-20T12:49:53.270Z,94418.95
2019-05-20T12:52:20.106Z,94418.42
2019-05-20T12:55:05.630Z,94430.78
2019-05-20T12:57:13.823Z,94427.45
2019-05-20T12:59:40.646Z,94434.31
2019-05-20T13:02:07.486Z,94442.80
2019-05-20T13:04:34.329Z,94450.32
2019-05-20T13:07:01.180Z,94444.09
2019-05-20T13:09:27.993Z,94441.20
2019-05-20T13:11:54.770Z,94460.94
2019-05-20T13:14:21.594Z,94456.00
2019-05-20T13:16:48.436Z,94452.73
2019-05-20T13:19:15.182Z,94474.15
2019-05-20T13:21:42.026Z,94482.15
2019-05-20T13:24:08.859Z,94490.24
2019-05-20T13:26:35.622Z,94486.80
2019-05-20T13:29:02.544Z,94494.42
2019-05-20T13:31:30.918Z,94497.04
2019-05-20T13:33:55.966Z,94500.47
2019-05-20T13:36:22.627Z,94505.77
2019-05-20T13:38:49.283Z,94500.58
2019-05-20T13:41:15.932Z,94490.50
2019-05-20T13:43:42.584Z,94488.73
2019-05-20T13:46:09.246Z,94494.98
2019-05-20T13:48:35.930Z,94494.53
2019-05-20T13:51:02.605Z,94480.75
2019-05-20T13:53:29.466Z,94473.22
2019-05-20T13:55:56.146Z,94478.32
2019-05-20T14:00:49.760Z,94499.91
2019-05-20T14:03:16.712Z,94489.13
2019-05-20T14:05:43.540Z,94486.67
2019-05-20T14:08:10.499Z,94498.14
2019-05-20T14:10:37.253Z,94496.64
2019-05-20T14:13:04.067Z,94493.39
2019-05-20T14:15:30.800Z,94494.03
2019-05-20T14:17:57.671Z,94500.63
2019-05-20T14:20:24.499Z,94507.55
2019-05-20T14:22:51.318Z,94494.87
2019-05-20T14:25:18.078Z,94491.80
2019-05-20T14:27:44.917Z,94494.04
2019-05-20T14:30:11.660Z,94497.10
2019-05-20T14:32:38.390Z,94501.02
2019-05-20T14:35:05.051Z,94496.92
2019-05-20T14:37:31.889Z,94494.79
2019-05-20T14:39:58.658Z,94485.38
2019-05-20T14:42:25.798Z,94487.80
2019-05-20T14:44:52.310Z,94502.30
2019-05-20T14:47:19.265Z,94494.02
2019-05-20T14:49:46.098Z,94504.28
2019-05-20T14:52:14.212Z,94515.14
2019-05-20T14:54:41.056Z,94521.20
2019-05-20T14:57:07.858Z,94520.50
2019-05-20T14:59:34.808Z,94524.09
2019-05-20T15:02:01.641Z,94529.30
2019-05-20T15:04:28.593Z,94533.75
2019-05-20T15:06:55.352Z,94538.09
2019-05-20T15:09:22.057Z,94539.86
2019-05-20T15:11:48.818Z,94540.44
2019-05-20T15:14:15.776Z,94542.94
2019-05-20T15:16:42.596Z,94539.28
2019-05-20T15:19:09.439Z,94547.10
2019-05-20T15:21:36.099Z,94540.81
2019-05-20T15:24:03.150Z,94536.28
2019-05-20T15:26:29.932Z,94530.02
2019-05-20T15:28:56.722Z,94527.51
2019-05-20T15:31:23.537Z,94522.56
2019-05-20T15:33:50.403Z,94510.13
2019-05-20T15:36:17.300Z,94511.06
2019-05-20T15:38:44.068Z,94509.02
2019-05-20T15:41:10.920Z,94498.74
2019-05-20T15:43:37.573Z,94501.23
2019-05-20T15:48:31.231Z,94499.93
2019-05-20T15:50:58.022Z,94501.25
2019-05-20T15:53:24.783Z,94502.75
2019-05-20T15:55:51.665Z,94505.41
2019-05-20T16:00:45.391Z,94510.42
2019-05-20T16:03:12.183Z,94500.95
2019-05-20T16:05:38.875Z,94508.36
2019-05-20T16:08:05.528Z,94487.71
2019-05-20T16:10:32.191Z,94492.39
2019-05-20T16:12:58.831Z,94495.72
2019-05-20T16:15:25.493Z,94501.86
2019-05-20T16:17:52.125Z,94485.67
2019-05-20T16:20:18.909Z,94473.48
2019-05-20T16:22:47.961Z,94460.67
2019-05-20T16:25:14.606Z,94484.00
2019-05-20T16:27:41.605Z,94492.75
2019-05-20T16:30:07.930Z,94507.97
2019-05-20T16:32:34.578Z,94520.70
2019-05-20T16:35:01.257Z,94522.45
2019-05-20T16:37:27.860Z,94505.65
2019-05-20T16:39:54.502Z,94498.65
2019-05-20T16:42:21.175Z,94512.10
2019-05-20T16:44:47.796Z,94514.87
2019-05-20T16:47:14.441Z,94532.82
2019-05-20T16:49:41.095Z,94527.12
2019-05-20T16:52:07.737Z,94518.92
2019-05-20T16:54:34.388Z,94521.13
2019-05-20T16:57:04.307Z,94526.45
2019-05-20T16:59:30.966Z,94515.66
2019-05-20T17:01:57.621Z,94520.89
2019-05-20T17:04:24.252Z,94523.62
2019-05-20T17:06:51.104Z,94529.44
2019-05-20T17:09:17.767Z,94529.44
2019-05-20T17:11:44.398Z,94534.34
2019-05-20T17:14:11.172Z,94541.68
2019-05-20T17:16:38.036Z,94536.06
2019-05-20T17:19:04.432Z,94540.05
2019-05-20T17:21:31.091Z,94541.30
2019-05-20T17:23:57.726Z,94555.67
2019-05-20T17:26:24.361Z,94553.20
2019-05-20T17:28:51.024Z,94558.83
2019-05-20T17:31:17.670Z,94560.17
2019-05-20T17:33:44.320Z,94552.00
2019-05-20T17:36:10.961Z,94555.05
2019-05-20T17:38:37.600Z,94562.39
2019-05-20T17:41:04.253Z,94552.62
2019-05-20T17:43:30.891Z,94552.59
2019-05-20T17:45:57.540Z,94553.31
2019-05-20T17:48:24.174Z,94551.87
2019-05-20T17:50:50.825Z,94549.38
2019-05-20T17:53:17.476Z,94548.46
2019-05-20T17:55:44.122Z,94551.02
2019-05-20T18:00:37.462Z,94538.72
2019-05-20T18:03:04.113Z,94543.51
2019-05-20T18:05:31.036Z,94541.80
2019-05-20T18:07:57.681Z,94540.22
2019-05-20T18:10:24.320Z,94543.67
2019-05-20T18:12:50.980Z,94532.34
2019-05-20T18:15:17.612Z,94548.46
2019-05-20T18:17:44.251Z,94554.70
2019-05-20T18:20:10.929Z,94562.15
2019-05-20T18:22:37.555Z,94568.87
2019-05-20T18:25:04.196Z,94557.70
2019-05-20T18:27:30.953Z,94553.44
2019-05-20T18:30:00.475Z,94565.97
2019-05-20T18:32:27.121Z,94552.47
2019-05-20T18:34:53.855Z,94552.23
2019-05-20T18:37:20.500Z,94567.30
2019-05-20T18:39:47.146Z,94586.51
2019-05-20T18:42:13.815Z,94581.36
2019-05-20T18:44:40.441Z,94572.15
2019-05-20T18:47:07.078Z,94576.89
2019-05-20T18:49:33.736Z,94591.72
2019-05-20T18:52:00.387Z,94593.11
2019-05-20T18:54:27.062Z,94585.48
2019-05-20T18:56:53.711Z,94589.73
2019-05-20T18:59:20.352Z,94573.89
2019-05-20T19:02:02.372Z,94575.44
2019-05-20T19:04:13.668Z,94584.69
2019-05-20T19:06:40.452Z,94597.67
2019-05-20T19:09:07.095Z,94601.09
2019-05-20T19:11:33.830Z,94589.22
2019-05-20T19:14:00.465Z,94579.46
2019-05-20T19:16:27.123Z,94585.19
2019-05-20T19:18:53.762Z,94592.56
2019-05-20T19:21:20.413Z,94598.40
2019-05-20T19:23:47.057Z,94614.14
2019-05-20T19:26:24.674Z,94615.92
2019-05-20T19:28:40.345Z,94620.06
2019-05-20T19:31:08.024Z,94616.83
2019-05-20T19:36:00.286Z,94617.02
2019-05-20T19:38:26.931Z,94629.77
2019-05-20T19:40:53.572Z,94622.80
2019-05-20T19:43:20.251Z,94614.45
2019-05-20T19:45:46.865Z,94617.69
2019-05-20T19:48:13.510Z,94616.52
2019-05-20T19:50:40.162Z,94597.00
2019-05-20T19:53:07.035Z,94609.00
2019-05-20T19:55:33.494Z,94620.58
2019-05-20T19:58:00.168Z,94626.70
2019-05-20T20:00:26.827Z,94600.31
2019-05-20T20:02:53.481Z,94600.69
2019-05-20T20:05:20.261Z,94606.92
2019-05-20T20:07:47.113Z,94614.94
2019-05-20T20:10:13.798Z,94608.38
2019-05-20T20:12:40.437Z,94619.41
2019-05-20T20:15:07.125Z,94616.84
2019-05-20T20:17:33.766Z,94615.38
2019-05-20T20:20:00.441Z,94617.75
2019-05-20T20:22:27.059Z,94627.37
2019-05-20T20:24:53.697Z,94628.88
2019-05-20T20:27:20.351Z,94632.78
2019-05-20T20:29:46.989Z,94640.34
2019-05-20T20:32:13.642Z,94631.61
2019-05-20T20:34:40.283Z,94627.17
2019-05-20T20:37:06.932Z,94631.39
2019-05-20T20:39:34.459Z,94633.19
2019-05-20T20:42:00.283Z,94640.55
2019-05-20T20:44:26.932Z,94637.42
2019-05-20T20:46:53.577Z,94648.88
2019-05-20T20:49:20.217Z,94646.62
2019-05-20T20:51:46.979Z,94642.13
2019-05-20T20:54:13.617Z,94658.34
2019-05-20T20:56:40.254Z,94646.78
2019-05-20T20:59:06.905Z,94655.41
2019-05-20T21:01:33.553Z,94667.75
2019-05-20T21:04:00.206Z,94658.58
2019-05-20T21:06:27.041Z,94660.39
2019-05-20T21:08:53.689Z,94662.16
2019-05-20T21:11:20.332Z,94645.91
2019-05-20T21:13:46.985Z,94676.75
2019-05-20T21:16:13.617Z,94672.31
2019-05-20T21:18:40.350Z,94673.40
2019-05-20T21:21:06.926Z,94669.75
2019-05-20T21:23:33.581Z,94660.72
2019-05-20T21:26:00.245Z,94672.48
2019-05-20T21:28:26.895Z,94666.23
2019-05-20T21:30:53.545Z,94661.00
2019-05-20T21:33:20.227Z,94666.03
2019-05-20T21:35:46.883Z,94654.84
2019-05-20T21:38:13.522Z,94653.59
2019-05-20T21:40:40.217Z,94673.36
2019-05-20T21:43:06.857Z,94672.22
2019-05-20T21:45:33.501Z,94669.11
2019-05-20T21:48:00.139Z,94660.66
2019-05-20T21:50:26.818Z,94656.44
2019-05-20T21:52:53.455Z,94665.33
2019-05-20T21:57:46.738Z,94644.25
2019-05-20T22:00:13.394Z,94661.06
2019-05-20T22:02:40.070Z,94670.20
2019-05-20T22:05:06.814Z,94659.43
2019-05-20T22:07:33.414Z,94664.37
2019-05-20T22:10:00.034Z,94677.73
2019-05-20T22:12:26.709Z,94656.90
2019-05-20T22:14:53.385Z,94650.69
2019-05-20T22:17:20.029Z,94667.47
2019-05-20T22:19:46.706Z,94683.12
2019-05-20T22:22:13.392Z,94677.69
2019-05-20T22:24:40.050Z,94628.89
2019-05-20T22:27:06.689Z,94664.11
2019-05-20T22:29:33.336Z,94687.50
2019-05-20T22:32:00.051Z,94696.77
2019-05-20T22:34:26.687Z,94678.27
2019-05-20T22:36:53.326Z,94661.80
2019-05-20T22:39:19.964Z,94675.32
2019-05-20T22:41:46.618Z,94696.02
2019-05-20T22:44:13.257Z,94695.96
2019-05-20T22:46:40.418Z,94657.43
2019-05-20T22:49:07.092Z,94658.87
2019-05-20T22:51:33.746Z,94702.04
2019-05-20T22:54:00.583Z,94696.16
2019-05-20T22:56:27.088Z,94662.12
2019-05-20T22:58:53.740Z,94666.29
2019-05-20T23:01:20.421Z,94687.45
2019-05-20T23:03:55.972Z,94678.80
2019-05-20T23:06:13.755Z,94695.03
2019-05-20T23:08:40.501Z,94700.27
2019-05-20T23:11:07.231Z,94695.21
2019-05-20T23:13:33.875Z,94708.23
2019-05-20T23:16:00.598Z,94706.20
2019-05-20T23:18:27.239Z,94706.20
2019-05-20T23:20:53.918Z,94707.92
2019-05-20T23:23:20.557Z,94694.14
2019-05-20T23:25:47.207Z,94679.50
2019-05-20T23:28:13.861Z,94685.80
2019-05-20T23:33:07.157Z,94679.55
2019-05-20T23:35:33.801Z,94661.95
2019-05-20T23:38:00.477Z,94658.42
2019-05-20T23:40:27.109Z,94667.63
2019-05-20T23:45:20.407Z,94687.91
2019-05-20T23:47:47.046Z,94672.55
2019-05-20T23:50:13.831Z,94659.78
2019-05-20T23:52:40.430Z,94657.21
2019-05-20T23:55:07.111Z,94681.98
2019-05-20T23:57:33.747Z,94684.55
